Terminal Aerodrome Forecast
Issued by NWS Indianapolis, IN

Home | Current Version | Previous Version | Text Only | Print | Product List | Glossary On
Versions: 1 2 3 4 5 6 7 8 9 10 11 12 13 14 15 16 17 18 19 20 21 22 23 24 25 26
166
FTUS43 KIND 211421 AAA
TAFIND
TAF AMD
KIND 211421Z 2114/2218 17008KT P6SM BKN200
     FM220300 15006KT P6SM SCT250 WS020/19030KT
     FM221700 18011G24KT P6SM BKN070=

USA.gov is the U.S. government's official web portal to all federal, state and local government web resources and services.